Sedgwick Reserve, California Weather observations

Data are for 10 minute period ending at time listed.
 Day   Time   Solar   Ave.   Ave.  Ave.  Vector  Max.   Baro.   Total    
  of    of     Rad.   Air    Rel.  Wind   Wind   Wind  Press.  Precip.   
Year   Day            Temp.  Hum.  Speed  Dir.   Gust                    
2017   (PST)  Kw/m2    F      %     mph   deg.    mph    mb.     in.     
-------------------------------------------------------------------------
 143   20:40   0.00   58.8    75    3.4   120     5.3   971.7    0.00 
 143   20:50   0.00   58.2    76    1.6    61     2.8   971.7    0.00 
 143   21:00   0.00   57.7    77    2.0    66     3.4   971.8    0.00 
 143   21:10   0.00   57.1    79    2.9    30     4.5   971.8    0.00 
 143   21:20   0.00   56.3    80    3.7   360     4.9   971.6    0.00 
 143   21:30   0.00   56.0    80    1.6   261     2.6   971.5    0.00 
 143   21:40   0.00   55.7    80    1.8   262     2.7   971.6    0.00 
 143   21:50   0.00   55.6    80    0.7   280     1.4   971.6    0.00 
 143   22:00   0.00   55.1    81    1.5     3     2.6   971.5    0.00 
 143   22:10   0.00   54.1    82    2.8   348     3.9   971.4    0.00 
 143   22:20   0.00   53.8    82    0.3   274     1.3   971.4    0.00 
 143   22:30   0.00   53.8    82    0.9   239     1.7   971.4    0.00 
 143   22:40   0.00   53.8    83    1.5     7     3.6   971.3    0.00 
 143   22:50   0.00   53.2    82    2.5   358     5.0   971.2    0.00 
 143   23:00   0.00   53.4    83    0.7   240     1.7   971.1    0.00 
 143   23:10   0.00   53.7    82    0.7    16     1.8   971.0    0.00 
 143   23:20   0.00   53.2    83    1.5   240     2.6   970.8    0.00 
 143   23:30   0.00   53.8    85    1.7   266     2.9   970.7    0.00 
 143   23:40   0.00   53.3    83    0.3    40     1.8   970.6    0.00 
 143   23:50   0.00   52.8    84    0.5     9     1.8   970.5    0.00 
 144    0:00   0.00   52.3    85    2.3   357     4.4   970.5    0.00 
 144    0:10   0.00   52.6    86    0.8   332     2.8   970.2    0.00 
 144    0:20   0.00   53.2    86    0.7   256     2.6   970.1    0.00 
 144    0:30   0.00   52.9    86    0.2   254     1.2   970.0    0.00 
 144    0:40   0.00   52.3    85    0.3   280     1.7   969.9    0.00 
 144    0:50   0.00   52.2    86    0.3    78     1.8   969.7    0.00 
 144    1:00   0.00   52.2    85    0.8   116     2.6   969.6    0.00 
 144    1:10   0.00   51.9    87    1.7   268     2.9   969.5    0.00 
 144    1:20   0.00   52.1    85    0.9    27     2.2   969.5    0.00 
 144    1:30   0.00   52.4    83    0.6     5     2.1   969.3    0.00 
 144    1:40   0.00   51.8    85    0.8   158     1.6   969.4    0.00 
 144    1:50   0.00   51.2    86    1.4   123     2.9   969.4    0.00 
 144    2:00   0.00   50.7    87    0.6    19     2.9   969.3    0.00 
 144    2:10   0.00   50.1    87    1.5   268     2.9   969.2    0.00 
 144    2:20   0.00   50.3    87    1.5   255     3.1   969.3    0.00 
 144    2:30   0.00   49.1    87    3.5   135     5.1   969.3    0.00 
 144    2:40   0.00   48.7    90    3.2   142     4.9   969.3    0.00 
 144    2:50   0.00   48.0    91    2.4   109     4.5   969.4    0.00 
 144    3:00   0.00   47.4    93    2.2   132     4.2   969.5    0.00 
 144    3:10   0.00   46.6    94    2.2    95     3.8   969.6    0.00 
 144    3:20   0.00   46.2    95    1.4    37     2.4   969.4    0.00 
 144    3:30   0.00   46.3    95    0.5   194     1.5   969.3    0.00 
 144    3:40   0.00   46.0    96    1.2   172     2.8   969.3    0.00 
 144    3:50   0.00   45.5    96    2.3   100     4.5   969.4    0.00 
 144    4:00   0.00   45.6    97    1.0   149     3.1   969.4    0.00 
 144    4:10   0.00   45.9    97    1.0   100     2.6   969.4    0.00 
 144    4:20   0.00   45.9    97    2.1   253     3.4   969.4    0.00 
 144    4:30   0.00   45.5    98    0.8    14     2.9   969.4    0.00 
 144    4:40   0.00   45.8    98    2.4    24     4.2   969.3    0.00 
 144    4:50   0.00   45.7    98    3.4    14     4.6   968.6    0.00 
 144    5:00   0.01   45.7    99    5.5   193    13.7   968.7    0.00 
 144    5:10   0.01   46.2    99    3.7   162     9.3   969.2    0.00 
 144    5:20   0.01   46.6    99    2.9    27     5.8   969.4    0.00 
 144    5:30   0.01   46.9    99    1.3   252     5.0   969.5    0.00 
 144    5:40   0.01   46.7    99    2.6   272     5.4   969.6    0.00 
 144    5:50   0.03   46.9    99    1.1   190     3.1   969.8    0.00 
 144    6:00   0.07   47.0    99    3.3   188     5.8   969.9    0.00 
 144    6:10   0.08   47.4    99    1.2   104     3.2   969.8    0.00 
 144    6:20   0.12   47.7    99    1.4   192     3.4   970.0    0.00 
 144    6:30   0.23   48.7   100    2.2   359     4.7   969.7    0.00 
 144    6:40   0.23   49.1    99    6.7   176    15.8   970.2    0.00 
 144    6:50   0.09   49.2    98    3.1    73     8.1   970.3    0.00 
 144    7:00   0.18   49.7    96    3.9    42    10.1   970.0    0.00 
 144    7:10   0.42   50.6    93    5.7   228    10.3   969.9    0.00 
 144    7:20   0.40   52.1    88    3.9   208     7.7   970.1    0.00 
 144    7:30   0.51   54.0    82    4.5   204     8.6   970.5    0.00 
 144    7:40   0.49   53.8    83    5.4   220     9.6   970.7    0.00 
 144    7:50   0.59   54.1    83    5.5   218     9.6   970.9    0.00 
 144    8:00   0.63   56.4    78    2.0   260     5.6   970.9    0.00 
 144    8:10   0.72   58.2    74    1.6   221     4.2   970.7    0.00 
 144    8:20   0.77   59.8    70    2.8   219     7.2   970.8    0.00 
 144    8:30   0.83   60.3    70    5.6   212    11.4   970.9    0.00 
 144    8:40   0.19   59.4    72    3.4    45     8.1   970.5    0.00 
 144    8:50   0.15   57.9    75    9.6   189    15.1   970.8    0.00 
 144    9:00   0.27   56.1    79    3.5   141     9.2   970.7    0.00 
 144    9:10   0.76   57.8    75    3.3    79     6.5   970.6    0.00 
 144    9:20   0.71   60.3    69    2.9   138     7.6   970.2    0.00 
 144    9:30   0.84   62.0    66    4.0   158     7.6   969.9    0.00 
 144    9:40   0.91   63.8    62    5.7   188     9.8   969.8    0.00 
 144    9:50   0.92   65.3    59    7.0   192    12.8   969.9    0.00 
 144   10:00   0.84   65.6    59    3.4   236     7.6   970.0    0.00 
 144   10:10   0.92   68.9    53    1.5   136     3.1   969.6    0.00 
 144   10:20   0.93   70.5    51    2.6   224     6.5   969.1    0.00 
 144   10:30   0.75   70.2    51    3.7   227     7.7   969.0    0.00 
 144   10:40   0.95   72.6    47    3.3   159     6.9   968.9    0.00 
 144   10:50   0.96   74.4    46    5.0   202     9.0   968.7    0.00 
 144   11:00   0.97   73.7    47    7.1   210    13.2   968.6    0.00 
 144   11:10   0.98   73.7    47    6.9   235    11.2   968.7    0.00 
 144   11:20   0.98   76.0    43    2.4   214     5.0   968.6    0.00 
 144   11:30   0.94   76.0    42    8.8   243    15.4   968.7    0.00 
 144   11:40   0.99   76.7    41    5.2   256    10.4   968.6    0.00 
 144   11:50   1.01   78.7    38    4.3   246     8.9   968.4    0.00 
 144   12:00   0.78   79.4    36    3.7   228     9.7   968.3    0.00 
 144   12:10   0.42   78.7    33    3.7   221     8.2   968.2    0.00 
 144   12:20   0.65   79.8    32    1.9   360     4.6   967.9    0.00 
 144   12:30   0.87   81.9    28    3.3   301     7.7   967.8    0.00 
 144   12:40   0.84   82.3    28    4.4   242    10.2   967.7    0.00 
 144   12:50   0.82   82.2    25    6.8   243    13.2   967.6    0.00 
 144   13:00   0.97   81.2    34    9.2   226    15.7   967.6    0.00 
 144   13:10   0.91   81.7    32    7.3   224    12.6   967.5    0.00 
 144   13:20   0.92   83.7    28    3.9   265     8.2   967.2    0.00 
 144   13:30   0.92   84.9    25    7.2   241    14.0   967.1    0.00 
 144   13:40   0.81   80.9    38   17.1   228    25.7   967.2    0.00 
 144   13:50   0.51   75.9    46   13.1   273    20.1   967.4    0.00 
 144   14:00   0.46   73.1    50    6.0   291    15.7   967.4    0.00 
 144   14:10   0.86   75.5    47    5.2   290    11.5   967.3    0.00 
 144   14:20   0.83   76.8    45    6.3   299    12.7   967.2    0.00 
 144   14:30   0.81   74.9    48    8.4   272    13.6   967.3    0.00 
 144   14:40   0.82   76.4    45    6.6   272    12.9   967.2    0.00 
 144   14:50   0.77   76.9    43    8.6   261    12.6   967.0    0.00 
 144   15:00   0.66   77.0    42    9.1   256    15.8   966.9    0.00 
 144   15:10   0.43   74.9    43   11.6   262    17.0   966.8    0.00 
 144   15:20   0.67   75.7    41    9.3   273    14.5   966.6    0.00 
 144   15:30   0.59   77.4    37    6.8   265    10.9   966.5    0.00 
 144   15:40   0.55   77.7    37    8.4   257    12.4   966.3    0.00 
 144   15:50   0.51   78.0    38    7.8   248    12.8   966.2    0.00 
 144   16:00   0.48   76.9    41   11.0   253    16.9   966.2    0.00 
 144   16:10   0.44   75.4    44   10.4   266    15.3   966.3    0.00 
 144   16:20   0.41   74.8    45    9.4   276    14.6   966.3    0.00 
 144   16:30   0.37   74.0    47    9.2   271    15.1   966.3    0.00 
 144   16:40   0.34   72.3    49   11.1   261    15.9   966.3    0.00 
 144   16:50   0.30   71.3    50   11.6   256    18.8   966.2    0.00 
 144   17:00   0.27   69.1    54   13.1   251    18.0   966.1    0.00 
 144   17:10   0.24   67.7    56   11.7   255    17.2   966.3    0.00 
 144   17:20   0.21   66.8    58   11.0   262    17.1   966.4    0.00 
 144   17:30   0.17   66.2    59   10.9   279    15.3   966.5    0.00 
 144   17:40   0.15   65.1    61   10.3   279    15.6   966.6    0.00 
 144   17:50   0.12   63.3    64   12.6   274    16.7   966.7    0.00 
 144   18:00   0.09   61.8    67   11.6   274    17.9   966.9    0.00 
 144   18:10   0.07   60.6    69   10.9   274    16.0   967.1    0.00 
 144   18:20   0.04   60.0    71    8.7   278    14.0   967.2    0.00 
 144   18:30   0.02   58.8    73   11.2   277    15.6   967.2    0.00 
 144   18:40   0.01   58.0    75    6.5   285    12.3   967.3    0.00 
 144   18:50   0.01   56.8    78    6.8   288    13.2   967.4    0.00 
 144   19:00   0.00   55.6    81    6.9   278    12.1   967.5    0.00 
 144   19:10   0.00   54.9    83    7.0   286    13.3   967.5    0.00 
 144   19:20   0.00   54.4    84    7.1   283    13.2   967.5    0.00 
 144   19:30   0.00   54.1    85    5.3   286    10.2   967.6    0.00 
 144   19:40   0.00   53.9    85    4.3   287     7.7   967.6    0.00 
 144   19:50   0.00   53.8    86    3.6   304     7.5   967.6    0.00 
 144   20:00   0.00   53.5    86    2.1   260     4.9   967.7    0.00 
 144   20:10   0.00   53.2    86    1.5   222     2.9   967.8    0.00 
 144   20:20   0.00   52.8    87    0.5   102     1.3   967.8    0.00 
 144   20:30   0.00   52.4    87    0.6   107     1.2   967.8    0.00 

Return to Sedgwick Reserve graphs page.


Western Regional Climate Center,wrcc@dri.edu